createdAt,value
2023-03-06T00:12:45.803Z,80.8
2023-03-06T00:32:45.798Z,80.8
2023-03-06T00:52:45.853Z,82.2
2023-03-06T01:12:45.803Z,80.7
2023-03-06T01:32:45.809Z,82.4
2023-03-06T01:52:45.820Z,83.0
2023-03-06T02:12:45.831Z,81.8
2023-03-06T02:32:45.828Z,82.1
2023-03-06T02:52:45.841Z,82.4
2023-03-06T03:12:45.823Z,82.6
2023-03-06T03:32:45.838Z,83.6
2023-03-06T03:52:45.849Z,84.0
2023-03-06T04:12:45.851Z,84.9
2023-03-06T04:32:45.858Z,85.3
2023-03-06T04:52:45.855Z,86.7
2023-03-06T05:12:45.880Z,86.1
2023-03-06T05:32:45.881Z,85.2
2023-03-06T05:52:45.893Z,84.0
2023-03-06T06:12:45.951Z,84.7
2023-03-06T06:32:45.898Z,84.3
2023-03-06T06:52:46.086Z,83.0
2023-03-06T07:12:46.041Z,82.5
2023-03-06T07:32:45.992Z,81.7
2023-03-06T07:52:45.944Z,79.8
2023-03-06T08:12:46.014Z,79.9
2023-03-06T08:32:46.029Z,78.0
2023-03-06T08:52:45.998Z,76.3
2023-03-06T09:12:45.868Z,75.6
2023-03-06T09:32:45.932Z,76.4
2023-03-06T09:52:45.885Z,73.2
2023-03-06T10:12:45.998Z,74.3
2023-03-06T10:32:45.885Z,70.2
2023-03-06T10:52:45.904Z,71.7
2023-03-06T11:12:45.876Z,71.3
2023-03-06T11:32:45.930Z,73.5
2023-03-06T11:52:45.850Z,72.4
2023-03-06T12:12:45.828Z,71.8
2023-03-06T12:32:45.829Z,69.4
2023-03-06T12:52:46.025Z,69.5
2023-03-06T13:12:45.855Z,70.4
2023-03-06T13:32:45.861Z,68.6
2023-03-06T13:52:46.005Z,69.0
2023-03-06T14:12:46.042Z,68.6
2023-03-06T14:32:45.993Z,68.9
2023-03-06T14:52:46.056Z,70.4
2023-03-06T15:12:45.914Z,69.4
2023-03-06T15:32:45.938Z,69.4
2023-03-06T15:52:45.811Z,71.9
2023-03-06T16:12:45.886Z,71.0
2023-03-06T16:32:45.916Z,71.8
2023-03-06T16:52:45.784Z,73.3
2023-03-06T17:12:45.809Z,75.6
2023-03-06T17:32:45.812Z,77.0
2023-03-06T17:52:45.992Z,77.9
2023-03-06T18:12:45.796Z,78.2
2023-03-06T18:32:45.822Z,78.7
2023-03-06T18:52:45.823Z,79.2
2023-03-06T19:12:45.801Z,79.3
2023-03-06T19:32:45.826Z,80.4
2023-03-06T19:52:45.838Z,80.9
2023-03-06T20:12:45.837Z,82.2
2023-03-06T20:32:45.822Z,81.6
2023-03-06T20:52:45.865Z,80.7
2023-03-06T21:12:45.840Z,79.8
2023-03-06T21:32:45.854Z,79.5
2023-03-06T21:52:45.884Z,78.7
2023-03-06T22:12:45.762Z,79.1
2023-03-06T22:32:45.752Z,79.2
2023-03-06T22:52:45.828Z,76.6
2023-03-06T23:12:45.769Z,76.7
2023-03-06T23:32:45.771Z,78.4
2023-03-06T23:52:45.773Z,78.6
